sensor_id;sensor_type;location;lat;lon;timestamp;pressure;altitude;pressure_sealevel;temperature;humidity
17936;BME280;9093;52.062;4.508;2023-02-20T00:00:59;102807.84;;;7.84;76.04
17936;BME280;9093;52.062;4.508;2023-02-20T00:03:39;102811.44;;;7.83;75.85
17936;BME280;9093;52.062;4.508;2023-02-20T00:06:19;102809.69;;;7.81;76.05
17936;BME280;9093;52.062;4.508;2023-02-20T00:08:59;102814.09;;;7.80;75.94
17936;BME280;9093;52.062;4.508;2023-02-20T00:11:40;102811.44;;;7.80;76.20
17936;BME280;9093;52.062;4.508;2023-02-20T00:14:20;102792.88;;;7.77;75.78
17936;BME280;9093;52.062;4.508;2023-02-20T00:17:01;102801.75;;;7.76;75.83
17936;BME280;9093;52.062;4.508;2023-02-20T00:19:41;102787.59;;;7.74;76.01
17936;BME280;9093;52.062;4.508;2023-02-20T00:22:22;102784.06;;;7.72;76.12
17936;BME280;9093;52.062;4.508;2023-02-20T00:25:03;102787.63;;;7.71;76.07
17936;BME280;9093;52.062;4.508;2023-02-20T00:27:43;102776.13;;;7.71;75.96
17936;BME280;9093;52.062;4.508;2023-02-20T00:30:23;102770.81;;;7.69;76.14
17936;BME280;9093;52.062;4.508;2023-02-20T00:33:04;102778.78;;;7.69;76.19
17936;BME280;9093;52.062;4.508;2023-02-20T00:35:44;102778.78;;;7.69;76.07
17936;BME280;9093;52.062;4.508;2023-02-20T00:38:25;102774.34;;;7.70;76.19
17936;BME280;9093;52.062;4.508;2023-02-20T00:41:05;102780.56;;;7.70;76.25
17936;BME280;9093;52.062;4.508;2023-02-20T00:43:45;102785.88;;;7.70;76.15
17936;BME280;9093;52.062;4.508;2023-02-20T00:46:25;102779.66;;;7.70;76.28
17936;BME280;9093;52.062;4.508;2023-02-20T00:49:06;102777.00;;;7.71;76.51
17936;BME280;9093;52.062;4.508;2023-02-20T00:51:47;102757.47;;;7.72;76.31
17936;BME280;9093;52.062;4.508;2023-02-20T00:54:27;102750.41;;;7.71;76.57
17936;BME280;9093;52.062;4.508;2023-02-20T00:57:07;102742.44;;;7.71;76.30
17936;BME280;9093;52.062;4.508;2023-02-20T00:59:48;102750.41;;;7.71;76.47
17936;BME280;9093;52.062;4.508;2023-02-20T01:02:28;102746.81;;;7.72;76.54
17936;BME280;9093;52.062;4.508;2023-02-20T01:05:08;102740.66;;;7.70;76.53
17936;BME280;9093;52.062;4.508;2023-02-20T01:07:49;102743.31;;;7.70;76.56
17936;BME280;9093;52.062;4.508;2023-02-20T01:10:29;102739.78;;;7.71;76.63
17936;BME280;9093;52.062;4.508;2023-02-20T01:13:10;102724.66;;;7.72;76.43
17936;BME280;9093;52.062;4.508;2023-02-20T01:15:50;102716.69;;;7.72;76.50
17936;BME280;9093;52.062;4.508;2023-02-20T01:18:31;102718.50;;;7.71;76.35
17936;BME280;9093;52.062;4.508;2023-02-20T01:21:11;102712.25;;;7.72;76.66
17936;BME280;9093;52.062;4.508;2023-02-20T01:23:51;102719.34;;;7.73;76.55
17936;BME280;9093;52.062;4.508;2023-02-20T01:26:32;102712.25;;;7.75;76.89
17936;BME280;9093;52.062;4.508;2023-02-20T01:29:12;102702.47;;;7.77;76.81
17936;BME280;9093;52.062;4.508;2023-02-20T01:31:53;102704.19;;;7.80;76.90
17936;BME280;9093;52.062;4.508;2023-02-20T01:34:33;102697.97;;;7.82;76.93
17936;BME280;9093;52.062;4.508;2023-02-20T01:37:14;102700.56;;;7.85;76.87
17936;BME280;9093;52.062;4.508;2023-02-20T01:39:54;102684.59;;;7.88;76.93
17936;BME280;9093;52.062;4.508;2023-02-20T01:42:35;102674.78;;;7.92;77.19
17936;BME280;9093;52.062;4.508;2023-02-20T01:48:02;102667.59;;;8.00;77.32
17936;BME280;9093;52.062;4.508;2023-02-20T01:50:43;102668.41;;;8.03;77.50
17936;BME280;9093;52.062;4.508;2023-02-20T01:53:26;102665.72;;;8.06;77.61
17936;BME280;9093;52.062;4.508;2023-02-20T01:56:08;102660.38;;;8.08;77.70
17936;BME280;9093;52.062;4.508;2023-02-20T01:58:50;102655.88;;;8.12;77.55
17936;BME280;9093;52.062;4.508;2023-02-20T02:01:31;102661.16;;;8.15;77.56
17936;BME280;9093;52.062;4.508;2023-02-20T02:04:13;102652.25;;;8.17;77.58
17936;BME280;9093;52.062;4.508;2023-02-20T02:06:54;102639.78;;;8.21;77.97
17936;BME280;9093;52.062;4.508;2023-02-20T02:09:47;102641.56;;;8.22;77.92
17936;BME280;9093;52.062;4.508;2023-02-20T02:12:29;102639.72;;;8.25;77.95
17936;BME280;9093;52.062;4.508;2023-02-20T02:15:18;102618.41;;;8.27;77.88
17936;BME280;9093;52.062;4.508;2023-02-20T02:21:23;102620.13;;;8.31;78.29
17936;BME280;9093;52.062;4.508;2023-02-20T02:30:47;102618.28;;;8.36;78.05
17936;BME280;9093;52.062;4.508;2023-02-20T02:42:05;102616.41;;;8.41;78.45
17936;BME280;9093;52.062;4.508;2023-02-20T02:44:59;102610.19;;;8.42;78.36
17936;BME280;9093;52.062;4.508;2023-02-20T02:50:42;102618.06;;;8.48;78.69
17936;BME280;9093;52.062;4.508;2023-02-20T02:53:24;102621.59;;;8.48;78.47
17936;BME280;9093;52.062;4.508;2023-02-20T02:56:04;102627.78;;;8.51;78.64
17936;BME280;9093;52.062;4.508;2023-02-20T02:59:02;102610.03;;;8.53;78.57
17936;BME280;9093;52.062;4.508;2023-02-20T03:01:46;102612.63;;;8.54;78.99
17936;BME280;9093;52.062;4.508;2023-02-20T03:04:29;102617.91;;;8.57;78.80
17936;BME280;9093;52.062;4.508;2023-02-20T03:07:13;102609.03;;;8.58;78.84
17936;BME280;9093;52.062;4.508;2023-02-20T03:09:59;102618.78;;;8.59;79.01
17936;BME280;9093;52.062;4.508;2023-02-20T03:12:41;102607.16;;;8.63;79.08
17936;BME280;9093;52.062;4.508;2023-02-20T03:15:29;102605.34;;;8.65;79.23
17936;BME280;9093;52.062;4.508;2023-02-20T03:21:11;102619.50;;;8.67;79.28
17936;BME280;9093;52.062;4.508;2023-02-20T03:23:57;102611.47;;;8.70;79.23
17936;BME280;9093;52.062;4.508;2023-02-20T03:26:40;102605.25;;;8.71;78.96
17936;BME280;9093;52.062;4.508;2023-02-20T03:29:30;102614.06;;;8.73;79.29
17936;BME280;9093;52.062;4.508;2023-02-20T03:32:14;102624.69;;;8.76;79.41
17936;BME280;9093;52.062;4.508;2023-02-20T03:35:14;102628.22;;;8.78;79.47
17936;BME280;9093;52.062;4.508;2023-02-20T03:38:15;102614.84;;;8.80;79.30
17936;BME280;9093;52.062;4.508;2023-02-20T03:41:15;102607.72;;;8.82;79.42
17936;BME280;9093;52.062;4.508;2023-02-20T03:44:16;102599.69;;;8.83;79.33
17936;BME280;9093;52.062;4.508;2023-02-20T03:46:59;102590.75;;;8.86;79.61
17936;BME280;9093;52.062;4.508;2023-02-20T03:49:42;102588.97;;;8.86;79.54
17936;BME280;9093;52.062;4.508;2023-02-20T03:52:23;102587.28;;;8.82;79.61
17936;BME280;9093;52.062;4.508;2023-02-20T03:55:04;102580.16;;;8.84;79.53
17936;BME280;9093;52.062;4.508;2023-02-20T03:57:48;102595.16;;;8.87;79.74
17936;BME280;9093;52.062;4.508;2023-02-20T04:00:32;102582.72;;;8.89;79.94
17936;BME280;9093;52.062;4.508;2023-02-20T04:03:21;102575.59;;;8.90;79.85
17936;BME280;9093;52.062;4.508;2023-02-20T04:06:03;102592.41;;;8.92;80.14
17936;BME280;9093;52.062;4.508;2023-02-20T04:08:52;102595.94;;;8.94;79.78
17936;BME280;9093;52.062;4.508;2023-02-20T04:11:38;102586.13;;;8.96;79.94
17936;BME280;9093;52.062;4.508;2023-02-20T04:14:22;102591.44;;;8.97;80.12
17936;BME280;9093;52.062;4.508;2023-02-20T04:17:10;102590.56;;;8.97;79.86
17936;BME280;9093;52.062;4.508;2023-02-20T04:19:53;102579.84;;;9.00;80.21
17936;BME280;9093;52.062;4.508;2023-02-20T04:22:38;102585.16;;;9.00;79.89
17936;BME280;9093;52.062;4.508;2023-02-20T04:25:50;102587.81;;;9.00;80.08
17936;BME280;9093;52.062;4.508;2023-02-20T04:28:28;102593.13;;;9.01;80.04
17936;BME280;9093;52.062;4.508;2023-02-20T04:31:11;102583.34;;;9.02;80.15
17936;BME280;9093;52.062;4.508;2023-02-20T04:33:53;102592.22;;;9.04;80.12
17936;BME280;9093;52.062;4.508;2023-02-20T04:36:33;102586.88;;;9.04;80.56
17936;BME280;9093;52.062;4.508;2023-02-20T04:39:13;102586.88;;;9.04;80.18
17936;BME280;9093;52.062;4.508;2023-02-20T04:41:54;102601.03;;;9.06;80.13
17936;BME280;9093;52.062;4.508;2023-02-20T04:44:34;102592.22;;;9.04;80.05
17936;BME280;9093;52.062;4.508;2023-02-20T04:47:17;102592.22;;;9.04;80.30
17936;BME280;9093;52.062;4.508;2023-02-20T04:49:57;102588.69;;;9.02;80.20
17936;BME280;9093;52.062;4.508;2023-02-20T04:52:37;102586.03;;;9.02;79.93
17936;BME280;9093;52.062;4.508;2023-02-20T04:55:18;102582.47;;;9.01;80.24
17936;BME280;9093;52.062;4.508;2023-02-20T04:58:02;102579.81;;;9.01;79.96
17936;BME280;9093;52.062;4.508;2023-02-20T05:00:42;102610.00;;;9.02;80.00
17936;BME280;9093;52.062;4.508;2023-02-20T05:03:22;102589.59;;;8.99;79.88
17936;BME280;9093;52.062;4.508;2023-02-20T05:06:03;102594.94;;;8.99;80.03
17936;BME280;9093;52.062;4.508;2023-02-20T05:08:46;102593.19;;;8.98;80.12
17936;BME280;9093;52.062;4.508;2023-02-20T05:11:26;102602.97;;;8.98;80.13
17936;BME280;9093;52.062;4.508;2023-02-20T05:14:07;102602.09;;;8.97;80.21
17936;BME280;9093;52.062;4.508;2023-02-20T05:16:50;102603.88;;;8.97;80.11
17936;BME280;9093;52.062;4.508;2023-02-20T05:19:30;102606.56;;;8.97;79.85
17936;BME280;9093;52.062;4.508;2023-02-20T05:22:11;102603.03;;;8.95;80.18
17936;BME280;9093;52.062;4.508;2023-02-20T05:25:02;102601.34;;;8.91;80.00
17936;BME280;9093;52.062;4.508;2023-02-20T05:27:42;102611.13;;;8.90;80.14
17936;BME280;9093;52.062;4.508;2023-02-20T05:30:23;102606.66;;;8.91;80.13
17936;BME280;9093;52.062;4.508;2023-02-20T05:33:03;102609.34;;;8.91;80.10
17936;BME280;9093;52.062;4.508;2023-02-20T05:35:43;102606.66;;;8.91;80.15
17936;BME280;9093;52.062;4.508;2023-02-20T05:38:23;102599.56;;;8.90;79.94
17936;BME280;9093;52.062;4.508;2023-02-20T05:41:04;102615.56;;;8.90;80.00
17936;BME280;9093;52.062;4.508;2023-02-20T05:43:45;102609.34;;;8.89;79.96
17936;BME280;9093;52.062;4.508;2023-02-20T05:46:26;102608.47;;;8.88;79.90
17936;BME280;9093;52.062;4.508;2023-02-20T05:49:08;102595.16;;;8.87;80.03
17936;BME280;9093;52.062;4.508;2023-02-20T05:51:48;102588.09;;;8.86;79.96
17936;BME280;9093;52.062;4.508;2023-02-20T05:54:29;102597.84;;;8.85;80.08
17936;BME280;9093;52.062;4.508;2023-02-20T05:57:10;102585.47;;;8.84;79.93
17936;BME280;9093;52.062;4.508;2023-02-20T05:59:51;102595.25;;;8.84;79.90
17936;BME280;9093;52.062;4.508;2023-02-20T06:02:32;102589.91;;;8.84;79.78
17936;BME280;9093;52.062;4.508;2023-02-20T06:05:16;102585.50;;;8.81;79.85
17936;BME280;9093;52.062;4.508;2023-02-20T06:07:57;102589.06;;;8.82;79.94
17936;BME280;9093;52.062;4.508;2023-02-20T06:10:44;102595.31;;;8.79;79.87
17936;BME280;9093;52.062;4.508;2023-02-20T06:13:24;102603.31;;;8.79;79.71
17936;BME280;9093;52.062;4.508;2023-02-20T06:16:20;102597.16;;;8.77;79.87
17936;BME280;9093;52.062;4.508;2023-02-20T06:19:00;102605.13;;;8.77;79.83
17936;BME280;9093;52.062;4.508;2023-02-20T06:21:49;102604.28;;;8.75;79.86
17936;BME280;9093;52.062;4.508;2023-02-20T06:24:30;102603.38;;;8.76;79.68
17936;BME280;9093;52.062;4.508;2023-02-20T06:27:10;102596.28;;;8.75;79.70
17936;BME280;9093;52.062;4.508;2023-02-20T06:29:51;102589.19;;;8.74;80.01
17936;BME280;9093;52.062;4.508;2023-02-20T06:32:31;102599.84;;;8.74;79.80
17936;BME280;9093;52.062;4.508;2023-02-20T06:35:12;102590.97;;;8.75;80.02
17936;BME280;9093;52.062;4.508;2023-02-20T06:37:52;102597.19;;;8.74;79.79
17936;BME280;9093;52.062;4.508;2023-02-20T06:40:32;102591.84;;;8.74;79.81
17936;BME280;9093;52.062;4.508;2023-02-20T06:43:13;102595.41;;;8.75;79.93
17936;BME280;9093;52.062;4.508;2023-02-20T06:45:53;102598.94;;;8.75;79.83
17936;BME280;9093;52.062;4.508;2023-02-20T06:48:33;102598.06;;;8.75;79.91
17936;BME280;9093;52.062;4.508;2023-02-20T06:51:25;102595.41;;;8.75;79.76
17936;BME280;9093;52.062;4.508;2023-02-20T06:54:07;102590.94;;;8.77;79.75
17936;BME280;9093;52.062;4.508;2023-02-20T06:56:49;102592.66;;;8.79;79.82
17936;BME280;9093;52.062;4.508;2023-02-20T06:59:30;102591.72;;;8.82;80.02
17936;BME280;9093;52.062;4.508;2023-02-20T07:02:11;102592.59;;;8.82;80.02
17936;BME280;9093;52.062;4.508;2023-02-20T07:04:52;102599.69;;;8.83;80.20
17936;BME280;9093;52.062;4.508;2023-02-20T07:07:32;102608.50;;;8.85;80.13
17936;BME280;9093;52.062;4.508;2023-02-20T07:10:12;102601.38;;;8.87;80.07
17936;BME280;9093;52.062;4.508;2023-02-20T07:12:53;102596.94;;;8.88;80.04
17936;BME280;9093;52.062;4.508;2023-02-20T07:15:33;102604.91;;;8.90;80.13
17936;BME280;9093;52.062;4.508;2023-02-20T07:18:14;102598.63;;;8.92;80.12
17936;BME280;9093;52.062;4.508;2023-02-20T07:20:56;102611.91;;;8.94;80.11
17936;BME280;9093;52.062;4.508;2023-02-20T07:23:36;102603.84;;;8.98;79.94
17936;BME280;9093;52.062;4.508;2023-02-20T07:26:23;102607.34;;;9.02;80.01
17936;BME280;9093;52.062;4.508;2023-02-20T07:29:05;102606.34;;;9.06;80.04
17936;BME280;9093;52.062;4.508;2023-02-20T07:31:45;102610.75;;;9.08;80.04
17936;BME280;9093;52.062;4.508;2023-02-20T07:34:26;102624.06;;;9.10;80.18
17936;BME280;9093;52.062;4.508;2023-02-20T07:37:06;102628.41;;;9.14;79.94
17936;BME280;9093;52.062;4.508;2023-02-20T07:39:47;102607.91;;;9.17;79.94
17936;BME280;9093;52.062;4.508;2023-02-20T07:42:27;102609.66;;;9.18;80.07
17936;BME280;9093;52.062;4.508;2023-02-20T07:45:08;102597.16;;;9.22;79.89
17936;BME280;9093;52.062;4.508;2023-02-20T07:47:49;102614.91;;;9.23;80.10
17936;BME280;9093;52.062;4.508;2023-02-20T07:50:29;102612.19;;;9.24;80.13
17936;BME280;9093;52.062;4.508;2023-02-20T07:53:14;102611.28;;;9.27;79.89
17936;BME280;9093;52.062;4.508;2023-02-20T07:55:55;102616.53;;;9.30;80.04
17936;BME280;9093;52.062;4.508;2023-02-20T07:58:35;102660.00;;;9.34;80.08
17936;BME280;9093;52.062;4.508;2023-02-20T08:01:16;102620.00;;;9.35;80.22
17936;BME280;9093;52.062;4.508;2023-02-20T08:03:56;102621.72;;;9.36;79.94
17936;BME280;9093;52.062;4.508;2023-02-20T08:06:37;102637.69;;;9.39;80.24
17936;BME280;9093;52.062;4.508;2023-02-20T08:09:17;102614.53;;;9.41;80.08
17936;BME280;9093;52.062;4.508;2023-02-20T08:11:58;102609.16;;;9.43;80.01
17936;BME280;9093;52.062;4.508;2023-02-20T08:14:38;102628.69;;;9.43;80.04
17936;BME280;9093;52.062;4.508;2023-02-20T08:17:18;102628.69;;;9.43;79.98
17936;BME280;9093;52.062;4.508;2023-02-20T08:19:59;102623.31;;;9.46;80.12
17936;BME280;9093;52.062;4.508;2023-02-20T08:22:39;102614.34;;;9.49;79.92
17936;BME280;9093;52.062;4.508;2023-02-20T08:25:19;102613.50;;;9.48;80.08
17936;BME280;9093;52.062;4.508;2023-02-20T08:28:00;102610.78;;;9.50;80.20
17936;BME280;9093;52.062;4.508;2023-02-20T08:30:40;102630.34;;;9.49;80.13
17936;BME280;9093;52.062;4.508;2023-02-20T08:33:20;102610.88;;;9.45;80.42
17936;BME280;9093;52.062;4.508;2023-02-20T08:36:01;102621.56;;;9.45;80.04
17936;BME280;9093;52.062;4.508;2023-02-20T08:38:41;102611.75;;;9.46;79.90
17936;BME280;9093;52.062;4.508;2023-02-20T08:41:21;102628.63;;;9.48;80.02
17936;BME280;9093;52.062;4.508;2023-02-20T08:44:02;102628.56;;;9.49;80.00
17936;BME280;9093;52.062;4.508;2023-02-20T08:46:50;102609.00;;;9.50;80.15
17936;BME280;9093;52.062;4.508;2023-02-20T08:49:30;102614.19;;;9.56;80.04
17936;BME280;9093;52.062;4.508;2023-02-20T08:52:11;102609.69;;;9.60;79.79
17936;BME280;9093;52.062;4.508;2023-02-20T08:54:51;102602.50;;;9.63;79.93
17936;BME280;9093;52.062;4.508;2023-02-20T08:57:31;102596.16;;;9.67;80.11
17936;BME280;9093;52.062;4.508;2023-02-20T09:00:13;102585.44;;;9.71;79.85
17936;BME280;9093;52.062;4.508;2023-02-20T09:02:57;102573.78;;;9.75;80.13
17936;BME280;9093;52.062;4.508;2023-02-20T09:05:39;102585.25;;;9.80;79.84
17936;BME280;9093;52.062;4.508;2023-02-20T09:08:20;102589.59;;;9.84;79.81
17936;BME280;9093;52.062;4.508;2023-02-20T09:11:00;102597.56;;;9.85;79.81
17936;BME280;9093;52.062;4.508;2023-02-20T09:13:42;102604.69;;;9.85;79.86
17936;BME280;9093;52.062;4.508;2023-02-20T09:16:23;102594.84;;;9.87;79.79
17936;BME280;9093;52.062;4.508;2023-02-20T09:19:04;102597.41;;;9.91;79.65
17936;BME280;9093;52.062;4.508;2023-02-20T09:21:46;102613.28;;;9.97;79.85
17936;BME280;9093;52.062;4.508;2023-02-20T09:24:27;102595.50;;;9.98;79.70
17936;BME280;9093;52.062;4.508;2023-02-20T09:27:13;102609.63;;;10.01;79.60
17936;BME280;9093;52.062;4.508;2023-02-20T09:29:53;102614.09;;;10.01;79.42
17936;BME280;9093;52.062;4.508;2023-02-20T09:32:33;102621.19;;;10.02;79.41
17936;BME280;9093;52.062;4.508;2023-02-20T09:35:17;102614.09;;;10.01;79.72
17936;BME280;9093;52.062;4.508;2023-02-20T09:37:58;102624.75;;;10.01;79.72
17936;BME280;9093;52.062;4.508;2023-02-20T09:40:38;102630.09;;;10.01;79.50
17936;BME280;9093;52.062;4.508;2023-02-20T09:43:46;102618.66;;;9.96;79.37
17936;BME280;9093;52.062;4.508;2023-02-20T09:46:28;102625.75;;;9.97;79.38
17936;BME280;9093;52.062;4.508;2023-02-20T09:49:13;102607.97;;;9.96;79.33
17936;BME280;9093;52.062;4.508;2023-02-20T09:51:59;102610.69;;;9.94;79.34
17936;BME280;9093;52.062;4.508;2023-02-20T09:54:51;102615.19;;;9.92;79.45
17936;BME280;9093;52.062;4.508;2023-02-20T09:57:35;102604.47;;;9.94;79.48
17936;BME280;9093;52.062;4.508;2023-02-20T10:00:26;102611.66;;;9.92;79.05
17936;BME280;9093;52.062;4.508;2023-02-20T10:06:30;102611.56;;;9.95;79.03
17936;BME280;9093;52.062;4.508;2023-02-20T10:09:13;102609.78;;;9.94;79.12
17936;BME280;9093;52.062;4.508;2023-02-20T10:12:18;102610.75;;;9.91;79.22
17936;BME280;9093;52.062;4.508;2023-02-20T10:15:13;102613.31;;;9.96;79.16
17936;BME280;9093;52.062;4.508;2023-02-20T10:18:22;102594.69;;;9.93;79.07
17936;BME280;9093;52.062;4.508;2023-02-20T10:21:17;102610.53;;;10.00;79.14
17936;BME280;9093;52.062;4.508;2023-02-20T10:27:17;102595.63;;;9.92;79.08
17936;BME280;9093;52.062;4.508;2023-02-20T10:30:00;102576.69;;;10.02;78.94
17936;BME280;9093;52.062;4.508;2023-02-20T10:32:50;102589.00;;;10.08;79.16
17936;BME280;9093;52.062;4.508;2023-02-20T10:35:55;102602.28;;;10.11;79.24
17936;BME280;9093;52.062;4.508;2023-02-20T10:38:41;102596.97;;;10.11;79.07
17936;BME280;9093;52.062;4.508;2023-02-20T10:41:31;102627.09;;;10.16;79.04
17936;BME280;9093;52.062;4.508;2023-02-20T10:44:15;102596.84;;;10.17;79.07
17936;BME280;9093;52.062;4.508;2023-02-20T10:50:09;102602.19;;;10.17;79.02
17936;BME280;9093;52.062;4.508;2023-02-20T10:52:57;102609.25;;;10.18;79.11
17936;BME280;9093;52.062;4.508;2023-02-20T10:55:43;102607.44;;;10.20;78.79
17936;BME280;9093;52.062;4.508;2023-02-20T10:58:40;102609.19;;;10.21;78.72
17936;BME280;9093;52.062;4.508;2023-02-20T11:01:24;102600.28;;;10.22;78.83
17936;BME280;9093;52.062;4.508;2023-02-20T11:04:11;102594.97;;;10.21;78.89
17936;BME280;9093;52.062;4.508;2023-02-20T11:07:03;102614.47;;;10.24;78.68
17936;BME280;9093;52.062;4.508;2023-02-20T11:09:46;102601.13;;;10.24;78.54
17936;BME280;9093;52.062;4.508;2023-02-20T11:12:40;102604.72;;;10.22;78.68
17936;BME280;9093;52.062;4.508;2023-02-20T11:15:24;102593.13;;;10.24;78.58
17936;BME280;9093;52.062;4.508;2023-02-20T11:18:25;102586.06;;;10.20;78.42
17936;BME280;9093;52.062;4.508;2023-02-20T11:21:07;102583.25;;;10.26;78.40
17936;BME280;9093;52.062;4.508;2023-02-20T11:23:47;102552.06;;;10.28;78.38
17936;BME280;9093;52.062;4.508;2023-02-20T11:26:32;102577.72;;;10.34;78.48
17936;BME280;9093;52.062;4.508;2023-02-20T11:29:14;102552.66;;;10.39;78.36
17936;BME280;9093;52.062;4.508;2023-02-20T11:35:21;102547.09;;;10.48;78.52
17936;BME280;9093;52.062;4.508;2023-02-20T11:43:42;102580.59;;;10.60;78.39
17936;BME280;9093;52.062;4.508;2023-02-20T11:46:23;102568.94;;;10.63;78.18
17936;BME280;9093;52.062;4.508;2023-02-20T11:49:08;102543.94;;;10.67;78.21
17936;BME280;9093;52.062;4.508;2023-02-20T11:51:49;102543.81;;;10.70;78.22
17936;BME280;9093;52.062;4.508;2023-02-20T11:54:29;102548.19;;;10.74;78.09
17936;BME280;9093;52.062;4.508;2023-02-20T12:00:43;102559.69;;;10.76;77.96
17936;BME280;9093;52.062;4.508;2023-02-20T12:03:29;102547.16;;;10.78;77.91
17936;BME280;9093;52.062;4.508;2023-02-20T12:09:18;102570.13;;;10.85;77.98
17936;BME280;9093;52.062;4.508;2023-02-20T12:11:59;102553.13;;;10.87;78.01
17936;BME280;9093;52.062;4.508;2023-02-20T12:14:41;102568.22;;;10.90;77.73
17936;BME280;9093;52.062;4.508;2023-02-20T12:17:28;102565.63;;;10.87;77.80
17936;BME280;9093;52.062;4.508;2023-02-20T12:20:22;102572.81;;;10.85;77.82
17936;BME280;9093;52.062;4.508;2023-02-20T12:26:05;102522.94;;;10.84;77.75
17936;BME280;9093;52.062;4.508;2023-02-20T12:32:11;102521.03;;;10.89;77.61
17936;BME280;9093;52.062;4.508;2023-02-20T12:38:25;102528.97;;;10.92;77.39
17936;BME280;9093;52.062;4.508;2023-02-20T12:41:20;102527.25;;;10.89;77.40
17936;BME280;9093;52.062;4.508;2023-02-20T12:58:59;102534.94;;;11.00;77.15
17936;BME280;9093;52.062;4.508;2023-02-20T13:01:43;102534.22;;;10.95;76.97
17936;BME280;9093;52.062;4.508;2023-02-20T13:04:44;102526.16;;;10.97;77.01
17936;BME280;9093;52.062;4.508;2023-02-20T13:07:51;102535.19;;;10.93;77.00
17936;BME280;9093;52.062;4.508;2023-02-20T13:10:35;102538.63;;;10.96;76.77
17936;BME280;9093;52.062;4.508;2023-02-20T13:13:21;102541.31;;;10.96;76.76
17936;BME280;9093;52.062;4.508;2023-02-20T13:18:52;102530.78;;;10.90;76.78
17936;BME280;9093;52.062;4.508;2023-02-20T13:21:33;102536.09;;;10.92;76.95
17936;BME280;9093;52.062;4.508;2023-02-20T13:27:06;102555.94;;;10.83;76.53
17936;BME280;9093;52.062;4.508;2023-02-20T13:30:16;102539.19;;;10.76;76.86
17936;BME280;9093;52.062;4.508;2023-02-20T13:33:24;102527.56;;;10.79;76.84
17936;BME280;9093;52.062;4.508;2023-02-20T13:42:00;102540.19;;;10.74;76.62
17936;BME280;9093;52.062;4.508;2023-02-20T13:44:43;102528.66;;;10.70;76.58
17936;BME280;9093;52.062;4.508;2023-02-20T13:47:32;102520.69;;;10.69;76.61
17936;BME280;9093;52.062;4.508;2023-02-20T13:50:39;102535.06;;;10.65;76.61
17936;BME280;9093;52.062;4.508;2023-02-20T13:53:20;102538.66;;;10.64;76.48
17936;BME280;9093;52.062;4.508;2023-02-20T13:56:01;102523.63;;;10.60;76.79
17936;BME280;9093;52.062;4.508;2023-02-20T13:58:41;102505.09;;;10.54;76.55
17936;BME280;9093;52.062;4.508;2023-02-20T14:01:23;102489.16;;;10.51;76.55
17936;BME280;9093;52.062;4.508;2023-02-20T14:04:05;102494.50;;;10.51;76.49
17936;BME280;9093;52.062;4.508;2023-02-20T14:06:53;102488.25;;;10.52;76.41
17936;BME280;9093;52.062;4.508;2023-02-20T14:09:34;102483.75;;;10.54;76.34
17936;BME280;9093;52.062;4.508;2023-02-20T14:12:15;102479.28;;;10.54;76.54
17936;BME280;9093;52.062;4.508;2023-02-20T14:14:56;102462.28;;;10.57;76.36
17936;BME280;9093;52.062;4.508;2023-02-20T14:17:37;102463.97;;;10.61;76.61
17936;BME280;9093;52.062;4.508;2023-02-20T14:20:24;102470.06;;;10.64;76.36
17936;BME280;9093;52.062;4.508;2023-02-20T14:23:15;102471.84;;;10.65;76.21
17936;BME280;9093;52.062;4.508;2023-02-20T14:25:59;102468.41;;;10.60;76.36
17936;BME280;9093;52.062;4.508;2023-02-20T14:28:44;102458.78;;;10.55;76.16
17936;BME280;9093;52.062;4.508;2023-02-20T14:31:29;102453.44;;;10.55;76.23
17936;BME280;9093;52.062;4.508;2023-02-20T14:34:16;102451.59;;;10.57;76.23
17936;BME280;9093;52.062;4.508;2023-02-20T14:43:17;102453.56;;;10.50;76.26
17936;BME280;9093;52.062;4.508;2023-02-20T14:46:02;102453.50;;;10.52;76.17
17936;BME280;9093;52.062;4.508;2023-02-20T14:48:43;102439.31;;;10.49;76.22
17936;BME280;9093;52.062;4.508;2023-02-20T14:51:24;102429.50;;;10.50;76.19
17936;BME280;9093;52.062;4.508;2023-02-20T14:54:19;102439.38;;;10.48;75.99
17936;BME280;9093;52.062;4.508;2023-02-20T14:57:00;102446.53;;;10.47;76.08
17936;BME280;9093;52.062;4.508;2023-02-20T14:59:43;102444.75;;;10.46;76.18
17936;BME280;9093;52.062;4.508;2023-02-20T15:02:26;102443.00;;;10.45;76.24
17936;BME280;9093;52.062;4.508;2023-02-20T15:05:09;102458.16;;;10.45;76.17
17936;BME280;9093;52.062;4.508;2023-02-20T15:07:59;102440.50;;;10.39;76.11
17936;BME280;9093;52.062;4.508;2023-02-20T15:10:43;102447.75;;;10.36;76.35
17936;BME280;9093;52.062;4.508;2023-02-20T15:13:29;102433.47;;;10.37;76.14
17936;BME280;9093;52.062;4.508;2023-02-20T15:16:19;102441.34;;;10.41;76.14
17936;BME280;9093;52.062;4.508;2023-02-20T15:19:00;102443.19;;;10.39;76.15
17936;BME280;9093;52.062;4.508;2023-02-20T15:21:40;102464.53;;;10.39;75.95
17936;BME280;9093;52.062;4.508;2023-02-20T15:24:37;102462.72;;;10.41;75.99
17936;BME280;9093;52.062;4.508;2023-02-20T15:27:20;102457.38;;;10.41;76.15
17936;BME280;9093;52.062;4.508;2023-02-20T15:30:16;102446.94;;;10.32;76.05
17936;BME280;9093;52.062;4.508;2023-02-20T15:32:56;102434.47;;;10.33;75.93
17936;BME280;9093;52.062;4.508;2023-02-20T15:35:37;102441.59;;;10.32;76.00
17936;BME280;9093;52.062;4.508;2023-02-20T15:38:18;102454.91;;;10.34;76.01
17936;BME280;9093;52.062;4.508;2023-02-20T15:41:00;102434.44;;;10.34;76.23
17936;BME280;9093;52.062;4.508;2023-02-20T15:43:40;102446.88;;;10.35;75.75
17936;BME280;9093;52.062;4.508;2023-02-20T15:46:21;102442.56;;;10.30;75.92
17936;BME280;9093;52.062;4.508;2023-02-20T15:49:02;102438.19;;;10.27;76.13
17936;BME280;9093;52.062;4.508;2023-02-20T15:51:43;102454.28;;;10.24;76.02
17936;BME280;9093;52.062;4.508;2023-02-20T15:54:23;102453.44;;;10.22;76.26
17936;BME280;9093;52.062;4.508;2023-02-20T15:57:12;102450.84;;;10.19;76.02
17936;BME280;9093;52.062;4.508;2023-02-20T15:59:54;102462.50;;;10.17;76.07
17936;BME280;9093;52.062;4.508;2023-02-20T16:02:35;102456.25;;;10.18;76.12
17936;BME280;9093;52.062;4.508;2023-02-20T16:05:15;102466.84;;;10.19;76.05
17936;BME280;9093;52.062;4.508;2023-02-20T16:07:56;102442.78;;;10.22;76.13
17936;BME280;9093;52.062;4.508;2023-02-20T16:10:37;102457.00;;;10.23;76.11